createdAt,value
2023-06-11T00:02:42.694Z,18.40
2023-06-11T00:06:04.945Z,18.40
2023-06-11T00:09:28.541Z,18.30
2023-06-11T00:12:52.683Z,18.30
2023-06-11T00:16:16.443Z,18.20
2023-06-11T00:19:38.925Z,18.10
2023-06-11T00:23:00.593Z,18.00
2023-06-11T00:26:23.572Z,18.00
2023-06-11T00:29:51.831Z,18.00
2023-06-11T00:33:19.820Z,17.90
2023-06-11T00:36:48.019Z,17.80
2023-06-11T00:40:12.312Z,17.70
2023-06-11T00:43:41.563Z,17.70
2023-06-11T00:47:05.756Z,17.70
2023-06-11T00:50:30.292Z,17.70
2023-06-11T00:53:52.435Z,17.70
2023-06-11T00:57:15.216Z,17.70
2023-06-11T01:00:38.179Z,17.70
2023-06-11T01:04:00.228Z,17.60
2023-06-11T01:07:22.140Z,17.50
2023-06-11T01:10:44.772Z,17.50
2023-06-11T01:14:06.454Z,17.40
2023-06-11T01:17:32.650Z,17.40
2023-06-11T01:20:57.489Z,17.30
2023-06-11T01:24:19.942Z,17.30
2023-06-11T01:27:49.799Z,17.20
2023-06-11T01:31:12.608Z,17.10
2023-06-11T01:34:34.229Z,17.10
2023-06-11T01:37:55.839Z,17.00
2023-06-11T01:41:17.907Z,16.90
2023-06-11T01:44:40.857Z,16.90
2023-06-11T01:48:02.566Z,17.00
2023-06-11T01:51:24.558Z,17.00
2023-06-11T01:54:46.914Z,17.10
2023-06-11T01:58:08.773Z,17.10
2023-06-11T02:01:31.754Z,17.10
2023-06-11T02:04:53.485Z,17.10
2023-06-11T02:08:15.117Z,17.00
2023-06-11T02:11:36.743Z,16.90
2023-06-11T02:14:59.388Z,16.80
2023-06-11T02:18:22.307Z,16.80
2023-06-11T02:21:43.903Z,16.70
2023-06-11T02:25:06.146Z,16.60
2023-06-11T02:28:27.728Z,16.60
2023-06-11T02:31:49.438Z,16.60
2023-06-11T02:35:12.734Z,16.60
2023-06-11T02:38:34.557Z,16.60
2023-06-11T02:41:56.185Z,16.60
2023-06-11T02:45:17.831Z,16.60
2023-06-11T02:48:39.594Z,16.50
2023-06-11T02:52:02.562Z,16.50
2023-06-11T02:55:25.632Z,16.40
2023-06-11T02:58:48.161Z,16.40
2023-06-11T03:02:09.763Z,16.40
2023-06-11T03:05:31.400Z,16.40
2023-06-11T03:08:54.368Z,16.30
2023-06-11T03:12:17.155Z,16.30
2023-06-11T03:15:40.445Z,16.30
2023-06-11T03:19:02.086Z,16.30
2023-06-11T03:22:23.675Z,16.20
2023-06-11T03:25:46.713Z,16.20
2023-06-11T03:29:08.929Z,16.10
2023-06-11T03:32:30.575Z,16.20
2023-06-11T03:35:52.410Z,16.20
2023-06-11T03:39:14.062Z,16.10
2023-06-11T03:42:37.039Z,16.20
2023-06-11T03:45:58.679Z,16.20
2023-06-11T03:49:20.444Z,16.30
2023-06-11T03:52:42.060Z,16.20
2023-06-11T03:56:03.788Z,16.30
2023-06-11T03:59:29.409Z,16.30
2023-06-11T04:02:51.392Z,16.30
2023-06-11T04:06:13.214Z,16.40
2023-06-11T04:09:34.828Z,16.40
2023-06-11T04:12:56.450Z,16.50
2023-06-11T04:16:19.440Z,16.60
2023-06-11T04:19:41.892Z,16.60
2023-06-11T04:23:03.534Z,16.70
2023-06-11T04:26:25.138Z,16.80
2023-06-11T04:29:46.763Z,16.90
2023-06-11T04:33:09.849Z,17.10
2023-06-11T04:36:31.490Z,17.20
2023-06-11T04:39:53.112Z,17.40
2023-06-11T04:43:14.737Z,17.60
2023-06-11T04:46:36.464Z,18.10
2023-06-11T04:49:59.427Z,18.50
2023-06-11T04:53:25.095Z,18.80
2023-06-11T04:56:46.709Z,19.10
2023-06-11T05:00:09.248Z,20.50
2023-06-11T05:03:31.195Z,22.10
2023-06-11T05:06:54.152Z,23.00
2023-06-11T05:10:15.886Z,24.00
2023-06-11T05:13:37.505Z,25.00
2023-06-11T05:16:59.182Z,26.10
2023-06-11T05:20:20.808Z,27.10
2023-06-11T05:23:43.847Z,27.50
2023-06-11T05:27:05.757Z,28.00
2023-06-11T05:30:27.390Z,28.60
2023-06-11T05:33:48.978Z,28.80
2023-06-11T05:37:10.606Z,29.30
2023-06-11T05:40:33.611Z,29.60
2023-06-11T05:43:55.319Z,29.90
2023-06-11T05:47:16.991Z,30.00
2023-06-11T05:50:38.665Z,30.40
2023-06-11T05:54:00.277Z,30.40
2023-06-11T05:57:24.188Z,31.00
2023-06-11T06:00:46.001Z,30.90
2023-06-11T06:04:07.748Z,31.50
2023-06-11T06:07:29.426Z,32.00
2023-06-11T06:10:51.118Z,32.00
2023-06-11T06:14:14.095Z,32.60
2023-06-11T06:17:35.706Z,32.70
2023-06-11T06:20:57.369Z,33.00
2023-06-11T06:24:19.076Z,32.70
2023-06-11T06:27:40.772Z,32.90
2023-06-11T06:31:03.888Z,32.90
2023-06-11T06:34:25.585Z,32.40
2023-06-11T06:37:47.213Z,32.80
2023-06-11T06:41:08.853Z,33.10
2023-06-11T06:44:32.757Z,33.50
2023-06-11T06:47:55.877Z,33.60
2023-06-11T06:51:17.606Z,33.40
2023-06-11T06:54:39.254Z,33.60
2023-06-11T09:00:41.438Z,30.20
2023-06-11T09:04:03.411Z,29.60
2023-06-11T09:07:25.253Z,29.50
2023-06-11T09:10:50.188Z,29.70
2023-06-11T09:14:11.784Z,29.60
2023-06-11T09:17:37.108Z,29.40
2023-06-11T09:20:59.437Z,29.30
2023-06-11T09:24:21.650Z,29.60
2023-06-11T09:27:43.852Z,29.40
2023-06-11T09:31:05.535Z,28.70
2023-06-11T09:34:28.500Z,28.50
2023-06-11T09:37:51.684Z,28.40
2023-06-11T09:41:13.320Z,28.70
2023-06-11T09:44:34.935Z,28.80
2023-06-11T09:47:57.046Z,28.70
2023-06-11T09:51:20.717Z,28.80
2023-06-11T09:54:44.279Z,28.60
2023-06-11T09:58:05.964Z,29.10
2023-06-11T10:01:27.734Z,29.00
2023-06-11T10:04:49.455Z,28.70
2023-06-11T10:08:13.724Z,28.50
2023-06-11T10:11:35.935Z,28.50
2023-06-11T10:14:57.567Z,28.60
2023-06-11T10:18:19.480Z,28.70
2023-06-11T10:21:41.800Z,29.00
2023-06-11T10:25:05.295Z,29.10
2023-06-11T10:28:35.125Z,28.80
2023-06-11T10:31:57.161Z,28.40
2023-06-11T10:35:22.643Z,28.60
2023-06-11T10:38:44.299Z,28.50
2023-06-11T10:42:07.523Z,28.40
2023-06-11T10:45:35.737Z,27.80
2023-06-11T10:48:57.343Z,27.40
2023-06-11T10:52:19.093Z,27.00
2023-06-11T10:55:44.364Z,26.90
2023-06-11T10:59:08.193Z,26.80
2023-06-11T11:02:30.057Z,26.70
2023-06-11T11:05:51.792Z,26.70
2023-06-11T11:09:13.516Z,26.70
2023-06-11T11:12:35.714Z,26.60
2023-06-11T11:16:01.133Z,26.70
2023-06-11T11:19:24.588Z,26.60
2023-06-11T11:22:49.520Z,26.50
2023-06-11T11:26:11.146Z,26.60
2023-06-11T11:29:32.795Z,26.60
2023-06-11T11:32:56.118Z,26.50
2023-06-11T11:36:17.773Z,26.50
2023-06-11T11:39:39.419Z,26.60
2023-06-11T11:43:01.994Z,26.60
2023-06-11T11:46:23.934Z,26.70
2023-06-11T11:49:53.019Z,26.80
2023-06-11T11:53:14.793Z,26.70
2023-06-11T11:56:36.454Z,26.70
2023-06-11T11:59:58.083Z,26.60
2023-06-11T12:03:20.545Z,26.50
2023-06-11T12:06:43.664Z,26.70
2023-06-11T12:10:05.634Z,26.70
2023-06-11T12:13:27.515Z,26.50
2023-06-11T12:16:49.388Z,26.60
2023-06-11T12:20:11.765Z,26.70
2023-06-11T12:23:34.963Z,26.70
2023-06-11T12:26:56.583Z,26.70
2023-06-11T12:30:18.324Z,26.60
2023-06-11T12:33:39.933Z,26.60
2023-06-11T12:37:01.535Z,26.70
2023-06-11T12:40:24.879Z,26.70
2023-06-11T12:43:46.536Z,26.60
2023-06-11T12:47:08.222Z,26.50
2023-06-11T12:50:29.962Z,26.50
2023-06-11T12:53:51.628Z,26.70
2023-06-11T12:57:14.727Z,26.60
2023-06-11T13:00:36.361Z,26.70
2023-06-11T13:03:57.973Z,26.70
2023-06-11T13:07:19.580Z,26.70
2023-06-11T13:10:41.193Z,26.80
2023-06-11T13:14:04.250Z,26.90
2023-06-11T13:17:25.895Z,27.00
2023-06-11T13:20:47.537Z,27.00
2023-06-11T13:24:09.414Z,26.90
2023-06-11T13:27:31.036Z,26.90
2023-06-11T13:30:54.144Z,26.80
2023-06-11T13:34:15.862Z,26.80
2023-06-11T13:37:37.493Z,26.70
2023-06-11T13:40:59.129Z,26.80
2023-06-11T13:44:20.917Z,26.80
2023-06-11T13:47:43.920Z,26.80
2023-06-11T13:51:06.023Z,26.80
2023-06-11T13:54:27.655Z,26.90
2023-06-11T13:57:49.268Z,26.90
2023-06-11T14:01:11.023Z,26.90
2023-06-11T14:04:34.133Z,26.90
2023-06-11T14:07:56.856Z,26.80
2023-06-11T14:11:18.666Z,26.70
2023-06-11T14:14:40.304Z,26.80
2023-06-11T14:18:02.050Z,26.80
2023-06-11T14:21:25.089Z,26.80
2023-06-11T14:24:46.766Z,26.70
2023-06-11T14:28:08.380Z,26.70
2023-06-11T14:31:30.033Z,26.80
2023-06-11T14:34:51.731Z,26.80
2023-06-11T14:38:14.696Z,26.90
2023-06-11T14:41:36.286Z,26.90
2023-06-11T14:44:57.919Z,26.90
2023-06-11T14:48:20.252Z,27.00
2023-06-11T14:51:41.991Z,27.00
2023-06-11T14:55:05.353Z,27.00
2023-06-11T14:58:26.943Z,27.00
2023-06-11T15:01:48.593Z,26.90
2023-06-11T15:05:10.207Z,26.80
2023-06-11T15:08:31.816Z,26.80
2023-06-11T15:11:54.859Z,26.80
2023-06-11T15:15:16.478Z,26.80
2023-06-11T15:18:38.194Z,26.90
2023-06-11T15:22:00.388Z,26.90
2023-06-11T15:25:22.133Z,26.90
2023-06-11T15:28:45.164Z,27.10
2023-06-11T15:32:07.294Z,27.10
2023-06-11T15:35:28.949Z,27.00
2023-06-11T15:38:50.559Z,27.00
2023-06-11T15:42:12.168Z,26.90
2023-06-11T15:45:35.197Z,26.90
2023-06-11T15:48:56.849Z,26.80
2023-06-11T15:52:18.518Z,26.80
2023-06-11T15:55:40.615Z,26.90
2023-06-11T15:59:02.286Z,27.00
2023-06-11T16:02:25.400Z,26.90
2023-06-11T16:05:47.027Z,26.90
2023-06-11T16:09:08.643Z,26.80
2023-06-11T16:12:30.275Z,26.80
2023-06-11T16:15:51.896Z,26.90
2023-06-11T16:19:14.973Z,26.90
2023-06-11T16:22:36.589Z,26.90
2023-06-11T16:25:58.202Z,26.80
2023-06-11T16:29:19.825Z,26.80
2023-06-11T16:32:41.536Z,26.70
2023-06-11T16:36:04.644Z,26.80
2023-06-11T16:39:28.601Z,26.70
2023-06-11T16:42:50.423Z,26.60
2023-06-11T16:46:12.057Z,26.60
2023-06-11T16:49:33.840Z,26.70
2023-06-11T16:52:56.769Z,26.70
2023-06-11T16:56:18.403Z,26.70
2023-06-11T16:59:40.095Z,26.60
2023-06-11T17:03:02.056Z,26.60
2023-06-11T17:06:24.326Z,26.40
2023-06-11T17:09:47.313Z,26.20
2023-06-11T17:13:08.942Z,26.20
2023-06-11T17:16:30.679Z,26.30
2023-06-11T17:19:52.314Z,26.30
2023-06-11T17:23:14.039Z,26.20
2023-06-11T17:26:36.950Z,26.10
2023-06-11T17:29:58.673Z,25.90
2023-06-11T17:33:20.453Z,25.70
2023-06-11T17:36:42.090Z,25.50
2023-06-11T17:40:03.909Z,25.40
2023-06-11T17:43:26.870Z,25.40
2023-06-11T17:46:48.550Z,25.40
2023-06-11T17:50:11.252Z,25.40
2023-06-11T17:53:33.226Z,25.40
2023-06-11T17:56:54.843Z,25.40
2023-06-11T18:00:18.103Z,25.30
2023-06-11T18:03:39.791Z,25.30
2023-06-11T18:07:01.601Z,25.30
2023-06-11T18:10:23.247Z,25.20
2023-06-11T18:13:44.900Z,25.10
2023-06-11T18:17:08.122Z,25.00
2023-06-11T18:20:29.781Z,24.90
2023-06-11T18:23:51.727Z,24.80
2023-06-11T18:27:13.398Z,24.70
2023-06-11T18:30:35.017Z,24.60
2023-06-11T18:33:58.096Z,24.50
2023-06-11T18:37:19.751Z,24.40
2023-06-11T18:40:41.582Z,24.30
2023-06-11T18:44:03.361Z,24.10
2023-06-11T18:47:25.035Z,24.00
2023-06-11T18:50:47.997Z,23.80
2023-06-11T18:54:09.680Z,23.70
2023-06-11T18:57:31.283Z,23.60
2023-06-11T19:00:53.099Z,23.50
2023-06-11T19:04:14.848Z,23.30
2023-06-11T19:07:37.884Z,23.30
2023-06-11T19:10:59.562Z,23.20
2023-06-11T19:14:21.171Z,23.10
2023-06-11T19:17:42.932Z,23.00
2023-06-11T19:21:04.591Z,22.90
2023-06-11T19:24:27.754Z,22.80
2023-06-11T19:27:49.628Z,22.70
2023-06-11T19:31:11.330Z,22.50
2023-06-11T19:34:32.988Z,22.40
2023-06-11T19:37:54.617Z,22.30
2023-06-11T19:41:17.695Z,22.10
2023-06-11T19:44:39.308Z,22.00
2023-06-11T19:48:00.979Z,22.00
2023-06-11T19:51:22.703Z,21.90
2023-06-11T19:54:51.498Z,21.80
2023-06-11T19:58:15.013Z,21.80
2023-06-11T20:01:36.642Z,21.70
2023-06-11T20:04:58.350Z,21.70
2023-06-11T20:08:20.005Z,21.60
2023-06-11T20:11:41.742Z,21.50
2023-06-11T20:15:05.224Z,21.40
2023-06-11T20:18:26.846Z,21.40
2023-06-11T20:21:48.541Z,21.30
2023-06-11T20:25:10.258Z,21.20
2023-06-11T20:28:32.108Z,21.20
2023-06-11T20:31:55.251Z,21.10
2023-06-11T20:35:17.025Z,21.10
2023-06-11T20:38:38.637Z,20.90
2023-06-11T20:42:00.254Z,20.90
2023-06-11T20:45:21.952Z,20.90
2023-06-11T20:48:45.081Z,20.90
2023-06-11T20:52:07.048Z,20.80
2023-06-11T20:55:28.660Z,20.70
2023-06-11T20:58:50.465Z,20.70
2023-06-11T21:02:12.109Z,20.60
2023-06-11T21:05:35.071Z,20.50
2023-06-11T21:08:56.788Z,20.40
2023-06-11T21:12:18.405Z,20.30
2023-06-11T21:15:40.062Z,20.10
2023-06-11T21:19:01.700Z,19.90
2023-06-11T21:22:24.625Z,19.80
2023-06-11T21:25:46.290Z,19.70
2023-06-11T21:29:07.930Z,19.70
2023-06-11T21:32:29.614Z,19.60
2023-06-11T21:35:51.265Z,19.50
2023-06-11T21:39:14.272Z,19.30
2023-06-11T21:42:35.840Z,19.20
2023-06-11T21:45:57.470Z,19.10
2023-06-11T21:49:19.084Z,19.00
2023-06-11T21:52:40.691Z,18.90
2023-06-11T21:56:04.078Z,18.80
2023-06-11T21:59:26.251Z,18.70
2023-06-11T22:02:47.976Z,18.60
2023-06-11T22:06:09.638Z,18.50
2023-06-11T22:09:31.253Z,18.40
2023-06-11T22:12:54.271Z,18.30
2023-06-11T22:16:16.583Z,18.20
2023-06-11T22:19:38.328Z,18.20
2023-06-11T22:22:59.939Z,18.30
2023-06-11T22:26:21.682Z,18.30
2023-06-11T22:29:44.926Z,18.30
2023-06-11T22:33:06.532Z,18.30
2023-06-11T22:36:28.330Z,18.30
2023-06-11T22:39:49.982Z,18.20
2023-06-11T22:43:11.662Z,18.20
2023-06-11T22:46:34.726Z,18.10
2023-06-11T22:49:56.594Z,18.10
2023-06-11T22:53:18.218Z,18.00
2023-06-11T22:56:39.828Z,18.00
2023-06-11T23:00:01.629Z,18.00
2023-06-11T23:03:24.682Z,17.90
2023-06-11T23:06:46.388Z,17.80
2023-06-11T23:10:08.366Z,17.70
2023-06-11T23:13:30.002Z,17.70
2023-06-11T23:16:51.727Z,17.60
2023-06-11T23:20:14.970Z,17.60
2023-06-11T23:23:36.898Z,17.50
2023-06-11T23:26:59.707Z,17.40
2023-06-11T23:30:21.584Z,17.30
2023-06-11T23:33:43.409Z,17.30
2023-06-11T23:37:06.497Z,17.20
2023-06-11T23:40:28.197Z,17.20
2023-06-11T23:43:49.805Z,17.10
2023-06-11T23:47:11.402Z,17.00
2023-06-11T23:50:33.028Z,16.90
2023-06-11T23:53:56.158Z,16.80
2023-06-11T23:57:17.768Z,16.80
